sensor_id;sensor_type;location;lat;lon;timestamp;P1;durP1;ratioP1;P2;durP2;ratioP2
19179;SDS011;9722;48.754;8.868;2023-08-06T00:03:10;1.77;;;1.67;;
19179;SDS011;9722;48.754;8.868;2023-08-06T00:06:31;2.33;;;1.90;;
19179;SDS011;9722;48.754;8.868;2023-08-06T00:09:51;1.67;;;1.57;;
19179;SDS011;9722;48.754;8.868;2023-08-06T00:13:12;3.53;;;1.93;;
19179;SDS011;9722;48.754;8.868;2023-08-06T00:16:32;1.67;;;1.57;;
19179;SDS011;9722;48.754;8.868;2023-08-06T00:19:53;2.10;;;2.00;;
19179;SDS011;9722;48.754;8.868;2023-08-06T00:23:13;2.03;;;1.93;;
19179;SDS011;9722;48.754;8.868;2023-08-06T00:26:34;2.67;;;2.00;;
19179;SDS011;9722;48.754;8.868;2023-08-06T00:29:54;1.90;;;1.80;;
19179;SDS011;9722;48.754;8.868;2023-08-06T00:33:15;2.13;;;1.73;;
19179;SDS011;9722;48.754;8.868;2023-08-06T00:36:35;1.97;;;1.87;;
19179;SDS011;9722;48.754;8.868;2023-08-06T00:39:56;4.43;;;2.00;;
19179;SDS011;9722;48.754;8.868;2023-08-06T00:43:16;1.70;;;1.60;;
19179;SDS011;9722;48.754;8.868;2023-08-06T00:46:37;2.07;;;1.97;;
19179;SDS011;9722;48.754;8.868;2023-08-06T00:49:58;2.10;;;1.90;;
19179;SDS011;9722;48.754;8.868;2023-08-06T00:53:19;2.00;;;1.90;;
19179;SDS011;9722;48.754;8.868;2023-08-06T00:56:39;2.00;;;1.80;;
19179;SDS011;9722;48.754;8.868;2023-08-06T01:00:02;2.50;;;2.27;;
19179;SDS011;9722;48.754;8.868;2023-08-06T01:03:24;2.07;;;1.97;;
19179;SDS011;9722;48.754;8.868;2023-08-06T01:06:46;3.57;;;2.30;;
19179;SDS011;9722;48.754;8.868;2023-08-06T01:13:42;1.90;;;1.80;;
19179;SDS011;9722;48.754;8.868;2023-08-06T01:17:09;2.53;;;2.30;;
19179;SDS011;9722;48.754;8.868;2023-08-06T01:20:31;2.20;;;2.00;;
19179;SDS011;9722;48.754;8.868;2023-08-06T01:23:51;2.27;;;2.17;;
19179;SDS011;9722;48.754;8.868;2023-08-06T01:27:14;2.33;;;1.90;;
19179;SDS011;9722;48.754;8.868;2023-08-06T01:30:43;3.30;;;1.90;;
19179;SDS011;9722;48.754;8.868;2023-08-06T01:37:43;2.23;;;2.13;;
19179;SDS011;9722;48.754;8.868;2023-08-06T01:41:04;2.57;;;2.37;;
19179;SDS011;9722;48.754;8.868;2023-08-06T01:44:24;2.10;;;2.00;;
19179;SDS011;9722;48.754;8.868;2023-08-06T01:47:45;2.00;;;1.73;;
19179;SDS011;9722;48.754;8.868;2023-08-06T01:51:05;2.40;;;2.20;;
19179;SDS011;9722;48.754;8.868;2023-08-06T01:54:26;3.20;;;1.90;;
19179;SDS011;9722;48.754;8.868;2023-08-06T01:57:47;2.17;;;2.07;;
19179;SDS011;9722;48.754;8.868;2023-08-06T02:01:08;2.43;;;2.23;;
19179;SDS011;9722;48.754;8.868;2023-08-06T02:04:28;2.30;;;2.20;;
19179;SDS011;9722;48.754;8.868;2023-08-06T02:07:49;2.23;;;1.80;;
19179;SDS011;9722;48.754;8.868;2023-08-06T02:11:09;1.90;;;1.70;;
19179;SDS011;9722;48.754;8.868;2023-08-06T02:14:30;2.63;;;2.10;;
19179;SDS011;9722;48.754;8.868;2023-08-06T02:17:50;2.10;;;1.83;;
19179;SDS011;9722;48.754;8.868;2023-08-06T02:21:11;2.13;;;1.80;;
19179;SDS011;9722;48.754;8.868;2023-08-06T02:24:31;2.20;;;1.53;;
19179;SDS011;9722;48.754;8.868;2023-08-06T02:27:52;2.23;;;1.90;;
19179;SDS011;9722;48.754;8.868;2023-08-06T02:31:12;1.97;;;1.70;;
19179;SDS011;9722;48.754;8.868;2023-08-06T02:34:33;2.30;;;1.80;;
19179;SDS011;9722;48.754;8.868;2023-08-06T02:37:53;3.87;;;1.77;;
19179;SDS011;9722;48.754;8.868;2023-08-06T02:41:14;2.30;;;1.50;;
19179;SDS011;9722;48.754;8.868;2023-08-06T02:44:35;2.60;;;1.57;;
19179;SDS011;9722;48.754;8.868;2023-08-06T02:47:55;2.43;;;1.77;;
19179;SDS011;9722;48.754;8.868;2023-08-06T02:51:16;1.93;;;1.73;;
19179;SDS011;9722;48.754;8.868;2023-08-06T02:54:36;1.60;;;1.50;;
19179;SDS011;9722;48.754;8.868;2023-08-06T02:57:57;1.50;;;1.40;;
19179;SDS011;9722;48.754;8.868;2023-08-06T03:01:17;1.57;;;1.47;;
19179;SDS011;9722;48.754;8.868;2023-08-06T03:04:38;1.60;;;1.50;;
19179;SDS011;9722;48.754;8.868;2023-08-06T03:07:58;2.60;;;1.60;;
19179;SDS011;9722;48.754;8.868;2023-08-06T03:11:19;2.27;;;2.07;;
19179;SDS011;9722;48.754;8.868;2023-08-06T03:14:39;1.73;;;1.60;;
19179;SDS011;9722;48.754;8.868;2023-08-06T03:18:00;1.60;;;1.50;;
19179;SDS011;9722;48.754;8.868;2023-08-06T03:21:20;1.73;;;1.53;;
19179;SDS011;9722;48.754;8.868;2023-08-06T03:24:41;1.83;;;1.70;;
19179;SDS011;9722;48.754;8.868;2023-08-06T03:28:01;2.03;;;1.77;;
19179;SDS011;9722;48.754;8.868;2023-08-06T03:31:22;1.60;;;1.50;;
19179;SDS011;9722;48.754;8.868;2023-08-06T03:34:42;2.07;;;1.70;;
19179;SDS011;9722;48.754;8.868;2023-08-06T03:38:03;3.27;;;1.70;;
19179;SDS011;9722;48.754;8.868;2023-08-06T03:41:23;3.03;;;1.50;;
19179;SDS011;9722;48.754;8.868;2023-08-06T03:44:44;2.17;;;1.30;;
19179;SDS011;9722;48.754;8.868;2023-08-06T03:48:04;1.40;;;1.30;;
19179;SDS011;9722;48.754;8.868;2023-08-06T03:51:25;1.53;;;1.20;;
19179;SDS011;9722;48.754;8.868;2023-08-06T03:54:45;1.73;;;1.30;;
19179;SDS011;9722;48.754;8.868;2023-08-06T03:58:06;1.77;;;1.30;;
19179;SDS011;9722;48.754;8.868;2023-08-06T04:01:26;1.87;;;1.10;;
19179;SDS011;9722;48.754;8.868;2023-08-06T04:04:47;1.43;;;1.10;;
19179;SDS011;9722;48.754;8.868;2023-08-06T04:08:08;1.00;;;0.90;;
19179;SDS011;9722;48.754;8.868;2023-08-06T04:11:29;1.37;;;1.10;;
19179;SDS011;9722;48.754;8.868;2023-08-06T04:14:50;2.53;;;1.17;;
19179;SDS011;9722;48.754;8.868;2023-08-06T04:18:12;2.17;;;1.10;;
19179;SDS011;9722;48.754;8.868;2023-08-06T04:21:32;1.33;;;1.00;;
19179;SDS011;9722;48.754;8.868;2023-08-06T04:24:53;1.17;;;1.07;;
19179;SDS011;9722;48.754;8.868;2023-08-06T04:28:13;1.17;;;1.03;;
19179;SDS011;9722;48.754;8.868;2023-08-06T04:31:34;2.60;;;1.00;;
19179;SDS011;9722;48.754;8.868;2023-08-06T04:34:55;1.10;;;1.00;;
19179;SDS011;9722;48.754;8.868;2023-08-06T04:38:15;1.70;;;1.00;;
19179;SDS011;9722;48.754;8.868;2023-08-06T04:41:36;1.03;;;0.93;;
19179;SDS011;9722;48.754;8.868;2023-08-06T04:44:56;1.70;;;1.00;;
19179;SDS011;9722;48.754;8.868;2023-08-06T04:48:17;1.37;;;0.90;;
19179;SDS011;9722;48.754;8.868;2023-08-06T04:51:38;0.90;;;0.83;;
19179;SDS011;9722;48.754;8.868;2023-08-06T04:54:58;0.83;;;0.83;;
19179;SDS011;9722;48.754;8.868;2023-08-06T04:58:19;1.23;;;0.80;;
19179;SDS011;9722;48.754;8.868;2023-08-06T05:01:39;0.70;;;0.60;;
19179;SDS011;9722;48.754;8.868;2023-08-06T05:05:00;0.60;;;0.60;;
19179;SDS011;9722;48.754;8.868;2023-08-06T05:08:20;0.80;;;0.60;;
19179;SDS011;9722;48.754;8.868;2023-08-06T05:11:41;0.83;;;0.63;;
19179;SDS011;9722;48.754;8.868;2023-08-06T05:15:01;0.87;;;0.60;;
19179;SDS011;9722;48.754;8.868;2023-08-06T05:18:22;0.50;;;0.50;;
19179;SDS011;9722;48.754;8.868;2023-08-06T05:21:42;0.50;;;0.50;;
19179;SDS011;9722;48.754;8.868;2023-08-06T05:25:03;2.30;;;0.50;;
19179;SDS011;9722;48.754;8.868;2023-08-06T05:28:24;0.40;;;0.30;;
19179;SDS011;9722;48.754;8.868;2023-08-06T05:31:44;0.60;;;0.40;;
19179;SDS011;9722;48.754;8.868;2023-08-06T05:35:05;0.70;;;0.50;;
19179;SDS011;9722;48.754;8.868;2023-08-06T05:38:26;0.40;;;0.40;;
19179;SDS011;9722;48.754;8.868;2023-08-06T05:41:47;1.30;;;0.60;;
19179;SDS011;9722;48.754;8.868;2023-08-06T05:45:07;0.63;;;0.40;;
19179;SDS011;9722;48.754;8.868;2023-08-06T05:48:28;0.70;;;0.40;;
19179;SDS011;9722;48.754;8.868;2023-08-06T05:51:49;1.03;;;0.50;;
19179;SDS011;9722;48.754;8.868;2023-08-06T05:55:09;1.43;;;0.60;;
19179;SDS011;9722;48.754;8.868;2023-08-06T05:58:30;0.53;;;0.40;;
19179;SDS011;9722;48.754;8.868;2023-08-06T06:01:50;1.10;;;0.50;;
19179;SDS011;9722;48.754;8.868;2023-08-06T06:05:11;1.23;;;0.63;;
19179;SDS011;9722;48.754;8.868;2023-08-06T06:08:31;0.70;;;0.47;;
19179;SDS011;9722;48.754;8.868;2023-08-06T06:11:53;0.77;;;0.40;;
19179;SDS011;9722;48.754;8.868;2023-08-06T06:15:14;0.43;;;0.40;;
19179;SDS011;9722;48.754;8.868;2023-08-06T06:18:35;0.33;;;0.33;;
19179;SDS011;9722;48.754;8.868;2023-08-06T06:21:55;0.53;;;0.30;;
19179;SDS011;9722;48.754;8.868;2023-08-06T06:25:17;0.20;;;0.20;;
19179;SDS011;9722;48.754;8.868;2023-08-06T06:28:38;0.40;;;0.30;;
19179;SDS011;9722;48.754;8.868;2023-08-06T06:31:58;0.30;;;0.30;;
19179;SDS011;9722;48.754;8.868;2023-08-06T06:35:19;0.43;;;0.30;;
19179;SDS011;9722;48.754;8.868;2023-08-06T06:38:39;0.30;;;0.30;;
19179;SDS011;9722;48.754;8.868;2023-08-06T06:42:00;0.70;;;0.70;;
19179;SDS011;9722;48.754;8.868;2023-08-06T06:45:21;2.33;;;2.10;;
19179;SDS011;9722;48.754;8.868;2023-08-06T06:48:41;2.10;;;1.57;;
19179;SDS011;9722;48.754;8.868;2023-08-06T06:52:02;1.07;;;0.83;;
19179;SDS011;9722;48.754;8.868;2023-08-06T06:55:22;0.80;;;0.80;;
19179;SDS011;9722;48.754;8.868;2023-08-06T06:58:43;0.53;;;0.20;;
19179;SDS011;9722;48.754;8.868;2023-08-06T07:02:03;0.20;;;0.20;;
19179;SDS011;9722;48.754;8.868;2023-08-06T07:05:24;0.87;;;0.20;;
19179;SDS011;9722;48.754;8.868;2023-08-06T07:08:45;0.70;;;0.70;;
19179;SDS011;9722;48.754;8.868;2023-08-06T07:12:05;0.20;;;0.20;;
19179;SDS011;9722;48.754;8.868;2023-08-06T07:15:26;0.27;;;0.20;;
19179;SDS011;9722;48.754;8.868;2023-08-06T07:18:47;0.67;;;0.20;;
19179;SDS011;9722;48.754;8.868;2023-08-06T07:22:07;0.37;;;0.20;;
19179;SDS011;9722;48.754;8.868;2023-08-06T07:25:27;0.20;;;0.20;;
19179;SDS011;9722;48.754;8.868;2023-08-06T07:28:48;0.10;;;0.10;;
19179;SDS011;9722;48.754;8.868;2023-08-06T07:32:09;0.20;;;0.20;;
19179;SDS011;9722;48.754;8.868;2023-08-06T07:35:30;0.40;;;0.20;;
19179;SDS011;9722;48.754;8.868;2023-08-06T07:38:50;0.53;;;0.20;;
19179;SDS011;9722;48.754;8.868;2023-08-06T07:42:15;0.20;;;0.20;;
19179;SDS011;9722;48.754;8.868;2023-08-06T07:45:36;0.30;;;0.30;;
19179;SDS011;9722;48.754;8.868;2023-08-06T07:48:57;0.20;;;0.20;;
19179;SDS011;9722;48.754;8.868;2023-08-06T07:52:17;0.40;;;0.20;;
19179;SDS011;9722;48.754;8.868;2023-08-06T07:55:37;0.10;;;0.10;;
19179;SDS011;9722;48.754;8.868;2023-08-06T07:58:58;0.67;;;0.23;;
19179;SDS011;9722;48.754;8.868;2023-08-06T08:02:19;0.30;;;0.30;;
19179;SDS011;9722;48.754;8.868;2023-08-06T08:05:40;0.20;;;0.20;;
19179;SDS011;9722;48.754;8.868;2023-08-06T08:09:04;0.20;;;0.20;;
19179;SDS011;9722;48.754;8.868;2023-08-06T08:12:24;0.93;;;0.20;;
19179;SDS011;9722;48.754;8.868;2023-08-06T08:15:45;0.47;;;0.20;;
19179;SDS011;9722;48.754;8.868;2023-08-06T08:19:05;0.23;;;0.20;;
19179;SDS011;9722;48.754;8.868;2023-08-06T08:22:26;0.20;;;0.20;;
19179;SDS011;9722;48.754;8.868;2023-08-06T08:25:46;0.10;;;0.10;;
19179;SDS011;9722;48.754;8.868;2023-08-06T08:29:07;0.10;;;0.10;;
19179;SDS011;9722;48.754;8.868;2023-08-06T08:32:27;0.13;;;0.10;;
19179;SDS011;9722;48.754;8.868;2023-08-06T08:35:48;0.20;;;0.20;;
19179;SDS011;9722;48.754;8.868;2023-08-06T08:39:08;0.10;;;0.10;;
19179;SDS011;9722;48.754;8.868;2023-08-06T08:42:29;0.10;;;0.10;;
19179;SDS011;9722;48.754;8.868;2023-08-06T08:45:50;0.10;;;0.10;;
19179;SDS011;9722;48.754;8.868;2023-08-06T08:49:12;0.20;;;0.20;;
19179;SDS011;9722;48.754;8.868;2023-08-06T08:52:32;0.20;;;0.20;;
19179;SDS011;9722;48.754;8.868;2023-08-06T08:55:54;0.10;;;0.10;;
19179;SDS011;9722;48.754;8.868;2023-08-06T08:59:15;0.30;;;0.10;;
19179;SDS011;9722;48.754;8.868;2023-08-06T09:02:36;0.10;;;0.10;;
19179;SDS011;9722;48.754;8.868;2023-08-06T09:05:59;0.50;;;0.10;;
19179;SDS011;9722;48.754;8.868;2023-08-06T09:09:25;0.10;;;0.10;;
19179;SDS011;9722;48.754;8.868;2023-08-06T09:12:48;0.10;;;0.10;;
19179;SDS011;9722;48.754;8.868;2023-08-06T09:16:09;0.10;;;0.10;;
19179;SDS011;9722;48.754;8.868;2023-08-06T09:19:30;0.20;;;0.10;;
19179;SDS011;9722;48.754;8.868;2023-08-06T09:22:53;0.10;;;0.10;;
19179;SDS011;9722;48.754;8.868;2023-08-06T09:26:14;0.40;;;0.10;;
19179;SDS011;9722;48.754;8.868;2023-08-06T09:29:34;0.10;;;0.10;;
19179;SDS011;9722;48.754;8.868;2023-08-06T09:33:03;0.10;;;0.10;;
19179;SDS011;9722;48.754;8.868;2023-08-06T09:36:28;0.10;;;0.10;;
19179;SDS011;9722;48.754;8.868;2023-08-06T09:39:48;0.10;;;0.10;;
19179;SDS011;9722;48.754;8.868;2023-08-06T09:43:09;0.60;;;0.10;;
19179;SDS011;9722;48.754;8.868;2023-08-06T09:46:31;0.10;;;0.10;;
19179;SDS011;9722;48.754;8.868;2023-08-06T09:49:53;0.10;;;0.10;;
19179;SDS011;9722;48.754;8.868;2023-08-06T09:53:13;0.10;;;0.10;;
19179;SDS011;9722;48.754;8.868;2023-08-06T09:56:34;0.10;;;0.10;;
19179;SDS011;9722;48.754;8.868;2023-08-06T09:59:57;0.10;;;0.10;;
19179;SDS011;9722;48.754;8.868;2023-08-06T10:03:18;0.10;;;0.10;;
19179;SDS011;9722;48.754;8.868;2023-08-06T10:06:39;0.00;;;0.00;;
19179;SDS011;9722;48.754;8.868;2023-08-06T10:10:01;0.10;;;0.10;;
19179;SDS011;9722;48.754;8.868;2023-08-06T10:13:22;0.30;;;0.10;;
19179;SDS011;9722;48.754;8.868;2023-08-06T10:16:44;0.10;;;0.10;;
19179;SDS011;9722;48.754;8.868;2023-08-06T10:20:05;0.83;;;0.20;;
19179;SDS011;9722;48.754;8.868;2023-08-06T10:23:37;0.20;;;0.20;;
19179;SDS011;9722;48.754;8.868;2023-08-06T10:27:00;0.10;;;0.10;;
19179;SDS011;9722;48.754;8.868;2023-08-06T10:30:30;0.30;;;0.30;;
19179;SDS011;9722;48.754;8.868;2023-08-06T10:33:52;0.63;;;0.27;;
19179;SDS011;9722;48.754;8.868;2023-08-06T10:37:15;0.30;;;0.30;;
19179;SDS011;9722;48.754;8.868;2023-08-06T10:40:49;0.10;;;0.10;;
19179;SDS011;9722;48.754;8.868;2023-08-06T10:44:13;0.37;;;0.20;;
19179;SDS011;9722;48.754;8.868;2023-08-06T10:47:37;0.30;;;0.20;;
19179;SDS011;9722;48.754;8.868;2023-08-06T10:50:59;0.20;;;0.20;;
19179;SDS011;9722;48.754;8.868;2023-08-06T10:54:21;0.30;;;0.20;;
19179;SDS011;9722;48.754;8.868;2023-08-06T10:57:41;0.50;;;0.27;;
19179;SDS011;9722;48.754;8.868;2023-08-06T11:01:02;0.30;;;0.30;;
19179;SDS011;9722;48.754;8.868;2023-08-06T11:04:22;0.30;;;0.30;;
19179;SDS011;9722;48.754;8.868;2023-08-06T11:07:44;0.27;;;0.27;;
19179;SDS011;9722;48.754;8.868;2023-08-06T11:11:08;0.20;;;0.20;;
19179;SDS011;9722;48.754;8.868;2023-08-06T11:14:31;0.37;;;0.30;;
19179;SDS011;9722;48.754;8.868;2023-08-06T11:17:52;0.20;;;0.20;;
19179;SDS011;9722;48.754;8.868;2023-08-06T11:21:12;0.37;;;0.37;;
19179;SDS011;9722;48.754;8.868;2023-08-06T11:24:33;0.53;;;0.50;;
19179;SDS011;9722;48.754;8.868;2023-08-06T11:27:53;0.50;;;0.50;;
19179;SDS011;9722;48.754;8.868;2023-08-06T11:31:20;0.50;;;0.50;;
19179;SDS011;9722;48.754;8.868;2023-08-06T11:34:42;0.50;;;0.50;;
19179;SDS011;9722;48.754;8.868;2023-08-06T11:38:03;0.60;;;0.50;;
19179;SDS011;9722;48.754;8.868;2023-08-06T11:41:24;0.33;;;0.33;;
19179;SDS011;9722;48.754;8.868;2023-08-06T11:44:44;0.50;;;0.50;;
19179;SDS011;9722;48.754;8.868;2023-08-06T11:48:05;0.60;;;0.60;;
19179;SDS011;9722;48.754;8.868;2023-08-06T11:51:28;0.90;;;0.70;;
19179;SDS011;9722;48.754;8.868;2023-08-06T11:58:23;1.50;;;0.70;;
19179;SDS011;9722;48.754;8.868;2023-08-06T12:01:43;0.50;;;0.50;;
19179;SDS011;9722;48.754;8.868;2023-08-06T12:05:09;0.60;;;0.60;;
19179;SDS011;9722;48.754;8.868;2023-08-06T12:08:31;0.87;;;0.50;;
19179;SDS011;9722;48.754;8.868;2023-08-06T12:11:51;0.87;;;0.60;;
19179;SDS011;9722;48.754;8.868;2023-08-06T12:15:12;0.70;;;0.70;;
19179;SDS011;9722;48.754;8.868;2023-08-06T12:18:32;0.67;;;0.67;;
19179;SDS011;9722;48.754;8.868;2023-08-06T12:21:53;0.60;;;0.60;;
19179;SDS011;9722;48.754;8.868;2023-08-06T12:25:14;0.70;;;0.60;;
19179;SDS011;9722;48.754;8.868;2023-08-06T12:28:34;0.60;;;0.50;;
19179;SDS011;9722;48.754;8.868;2023-08-06T12:31:55;1.77;;;1.60;;
19179;SDS011;9722;48.754;8.868;2023-08-06T12:35:15;0.57;;;0.57;;
19179;SDS011;9722;48.754;8.868;2023-08-06T12:38:36;0.97;;;0.67;;
19179;SDS011;9722;48.754;8.868;2023-08-06T12:41:56;0.50;;;0.50;;
19179;SDS011;9722;48.754;8.868;2023-08-06T12:45:17;0.50;;;0.50;;
19179;SDS011;9722;48.754;8.868;2023-08-06T12:48:41;1.30;;;0.50;;
19179;SDS011;9722;48.754;8.868;2023-08-06T12:52:01;0.50;;;0.50;;
19179;SDS011;9722;48.754;8.868;2023-08-06T12:55:22;1.00;;;0.57;;
19179;SDS011;9722;48.754;8.868;2023-08-06T12:58:42;0.50;;;0.50;;
19179;SDS011;9722;48.754;8.868;2023-08-06T13:02:04;0.77;;;0.53;;
19179;SDS011;9722;48.754;8.868;2023-08-06T13:05:24;0.50;;;0.50;;
19179;SDS011;9722;48.754;8.868;2023-08-06T13:08:45;0.93;;;0.50;;
19179;SDS011;9722;48.754;8.868;2023-08-06T13:12:05;0.73;;;0.37;;
19179;SDS011;9722;48.754;8.868;2023-08-06T13:15:26;0.80;;;0.47;;
19179;SDS011;9722;48.754;8.868;2023-08-06T13:18:47;0.60;;;0.50;;
19179;SDS011;9722;48.754;8.868;2023-08-06T13:22:07;0.77;;;0.37;;
19179;SDS011;9722;48.754;8.868;2023-08-06T13:25:29;0.80;;;0.40;;
19179;SDS011;9722;48.754;8.868;2023-08-06T13:28:49;0.50;;;0.30;;
19179;SDS011;9722;48.754;8.868;2023-08-06T13:32:10;0.70;;;0.70;;
19179;SDS011;9722;48.754;8.868;2023-08-06T13:35:31;0.83;;;0.30;;
19179;SDS011;9722;48.754;8.868;2023-08-06T13:38:51;0.17;;;0.17;;
19179;SDS011;9722;48.754;8.868;2023-08-06T13:42:12;0.30;;;0.30;;
19179;SDS011;9722;48.754;8.868;2023-08-06T13:45:33;0.20;;;0.20;;
19179;SDS011;9722;48.754;8.868;2023-08-06T13:48:54;0.30;;;0.30;;
19179;SDS011;9722;48.754;8.868;2023-08-06T13:52:15;0.83;;;0.40;;
19179;SDS011;9722;48.754;8.868;2023-08-06T13:55:36;0.80;;;0.40;;
19179;SDS011;9722;48.754;8.868;2023-08-06T13:58:56;1.23;;;0.40;;
19179;SDS011;9722;48.754;8.868;2023-08-06T14:02:17;0.30;;;0.30;;
19179;SDS011;9722;48.754;8.868;2023-08-06T14:05:37;0.47;;;0.40;;
19179;SDS011;9722;48.754;8.868;2023-08-06T14:08:58;0.37;;;0.37;;
19179;SDS011;9722;48.754;8.868;2023-08-06T14:12:18;2.47;;;1.40;;
19179;SDS011;9722;48.754;8.868;2023-08-06T14:15:39;0.50;;;0.50;;
19179;SDS011;9722;48.754;8.868;2023-08-06T14:19:00;1.07;;;0.50;;
19179;SDS011;9722;48.754;8.868;2023-08-06T14:22:21;0.87;;;0.60;;
19179;SDS011;9722;48.754;8.868;2023-08-06T14:25:42;0.53;;;0.50;;
19179;SDS011;9722;48.754;8.868;2023-08-06T14:29:03;0.40;;;0.30;;
19179;SDS011;9722;48.754;8.868;2023-08-06T14:32:23;2.73;;;0.67;;
19179;SDS011;9722;48.754;8.868;2023-08-06T14:35:44;0.90;;;0.90;;
19179;SDS011;9722;48.754;8.868;2023-08-06T14:39:04;0.93;;;0.73;;
19179;SDS011;9722;48.754;8.868;2023-08-06T14:42:25;0.40;;;0.40;;
19179;SDS011;9722;48.754;8.868;2023-08-06T14:45:45;0.37;;;0.30;;
19179;SDS011;9722;48.754;8.868;2023-08-06T14:49:06;0.53;;;0.30;;
19179;SDS011;9722;48.754;8.868;2023-08-06T14:52:26;0.60;;;0.60;;
19179;SDS011;9722;48.754;8.868;2023-08-06T14:55:47;0.43;;;0.43;;
19179;SDS011;9722;48.754;8.868;2023-08-06T14:59:07;0.30;;;0.30;;
19179;SDS011;9722;48.754;8.868;2023-08-06T15:02:28;0.50;;;0.30;;
19179;SDS011;9722;48.754;8.868;2023-08-06T15:05:48;0.40;;;0.40;;
19179;SDS011;9722;48.754;8.868;2023-08-06T15:09:09;0.60;;;0.60;;
19179;SDS011;9722;48.754;8.868;2023-08-06T15:12:30;1.30;;;0.40;;
19179;SDS011;9722;48.754;8.868;2023-08-06T15:15:51;0.37;;;0.37;;
19179;SDS011;9722;48.754;8.868;2023-08-06T15:19:11;0.87;;;0.40;;
19179;SDS011;9722;48.754;8.868;2023-08-06T15:22:32;0.43;;;0.43;;
19179;SDS011;9722;48.754;8.868;2023-08-06T15:25:52;0.60;;;0.60;;
19179;SDS011;9722;48.754;8.868;2023-08-06T15:29:13;0.73;;;0.50;;
19179;SDS011;9722;48.754;8.868;2023-08-06T15:32:33;1.60;;;0.50;;
19179;SDS011;9722;48.754;8.868;2023-08-06T15:35:54;1.17;;;0.40;;
19179;SDS011;9722;48.754;8.868;2023-08-06T15:39:14;0.40;;;0.40;;
19179;SDS011;9722;48.754;8.868;2023-08-06T15:42:35;0.67;;;0.50;;
19179;SDS011;9722;48.754;8.868;2023-08-06T15:45:55;0.43;;;0.40;;
19179;SDS011;9722;48.754;8.868;2023-08-06T15:49:16;1.07;;;0.33;;
19179;SDS011;9722;48.754;8.868;2023-08-06T15:52:36;0.70;;;0.50;;
19179;SDS011;9722;48.754;8.868;2023-08-06T15:55:57;0.50;;;0.50;;
19179;SDS011;9722;48.754;8.868;2023-08-06T15:59:27;1.13;;;0.40;;
19179;SDS011;9722;48.754;8.868;2023-08-06T16:02:49;0.40;;;0.40;;
19179;SDS011;9722;48.754;8.868;2023-08-06T16:06:09;0.63;;;0.50;;
19179;SDS011;9722;48.754;8.868;2023-08-06T16:09:30;0.60;;;0.60;;
19179;SDS011;9722;48.754;8.868;2023-08-06T16:12:50;2.27;;;0.70;;
19179;SDS011;9722;48.754;8.868;2023-08-06T16:16:11;0.60;;;0.60;;
19179;SDS011;9722;48.754;8.868;2023-08-06T16:19:31;0.50;;;0.50;;
19179;SDS011;9722;48.754;8.868;2023-08-06T16:22:52;0.93;;;0.60;;
19179;SDS011;9722;48.754;8.868;2023-08-06T16:26:12;0.30;;;0.30;;
19179;SDS011;9722;48.754;8.868;2023-08-06T16:29:33;0.50;;;0.50;;
19179;SDS011;9722;48.754;8.868;2023-08-06T16:32:55;0.30;;;0.30;;
19179;SDS011;9722;48.754;8.868;2023-08-06T16:36:16;0.63;;;0.40;;
19179;SDS011;9722;48.754;8.868;2023-08-06T16:39:36;0.40;;;0.40;;
19179;SDS011;9722;48.754;8.868;2023-08-06T16:42:57;0.43;;;0.43;;
19179;SDS011;9722;48.754;8.868;2023-08-06T16:46:17;0.80;;;0.60;;
19179;SDS011;9722;48.754;8.868;2023-08-06T16:49:38;0.73;;;0.50;;
19179;SDS011;9722;48.754;8.868;2023-08-06T16:52:58;0.50;;;0.50;;
19179;SDS011;9722;48.754;8.868;2023-08-06T16:56:19;0.77;;;0.50;;
19179;SDS011;9722;48.754;8.868;2023-08-06T16:59:39;0.77;;;0.60;;
19179;SDS011;9722;48.754;8.868;2023-08-06T17:02:59;1.00;;;0.60;;
19179;SDS011;9722;48.754;8.868;2023-08-06T17:06:20;0.50;;;0.50;;
19179;SDS011;9722;48.754;8.868;2023-08-06T17:09:41;1.10;;;0.60;;
19179;SDS011;9722;48.754;8.868;2023-08-06T17:13:02;0.67;;;0.67;;
19179;SDS011;9722;48.754;8.868;2023-08-06T17:16:26;0.73;;;0.73;;
19179;SDS011;9722;48.754;8.868;2023-08-06T17:19:46;1.30;;;0.70;;
19179;SDS011;9722;48.754;8.868;2023-08-06T17:23:07;1.30;;;0.80;;
19179;SDS011;9722;48.754;8.868;2023-08-06T17:26:27;0.57;;;0.57;;
19179;SDS011;9722;48.754;8.868;2023-08-06T17:29:48;2.00;;;0.70;;
19179;SDS011;9722;48.754;8.868;2023-08-06T17:33:09;0.60;;;0.60;;
19179;SDS011;9722;48.754;8.868;2023-08-06T17:36:31;2.57;;;1.00;;
19179;SDS011;9722;48.754;8.868;2023-08-06T17:39:51;1.90;;;0.70;;
19179;SDS011;9722;48.754;8.868;2023-08-06T17:43:12;1.63;;;0.70;;
19179;SDS011;9722;48.754;8.868;2023-08-06T17:46:33;1.60;;;0.80;;
19179;SDS011;9722;48.754;8.868;2023-08-06T17:49:53;0.77;;;0.77;;
19179;SDS011;9722;48.754;8.868;2023-08-06T17:53:14;0.80;;;0.67;;
19179;SDS011;9722;48.754;8.868;2023-08-06T17:56:34;0.70;;;0.70;;
19179;SDS011;9722;48.754;8.868;2023-08-06T17:59:55;1.13;;;1.03;;
19179;SDS011;9722;48.754;8.868;2023-08-06T18:03:16;0.83;;;0.83;;
19179;SDS011;9722;48.754;8.868;2023-08-06T18:06:37;2.70;;;1.40;;
19179;SDS011;9722;48.754;8.868;2023-08-06T18:09:57;0.87;;;0.80;;
19179;SDS011;9722;48.754;8.868;2023-08-06T18:13:18;0.97;;;0.97;;
19179;SDS011;9722;48.754;8.868;2023-08-06T18:16:39;0.77;;;0.60;;
19179;SDS011;9722;48.754;8.868;2023-08-06T18:19:59;2.13;;;0.90;;
19179;SDS011;9722;48.754;8.868;2023-08-06T18:23:20;1.17;;;1.10;;
19179;SDS011;9722;48.754;8.868;2023-08-06T18:26:40;1.63;;;0.90;;
19179;SDS011;9722;48.754;8.868;2023-08-06T18:30:01;1.37;;;0.80;;
19179;SDS011;9722;48.754;8.868;2023-08-06T18:33:22;2.67;;;0.90;;
19179;SDS011;9722;48.754;8.868;2023-08-06T18:36:43;1.00;;;0.90;;
19179;SDS011;9722;48.754;8.868;2023-08-06T18:40:07;1.40;;;0.90;;
19179;SDS011;9722;48.754;8.868;2023-08-06T18:43:28;2.53;;;1.07;;
19179;SDS011;9722;48.754;8.868;2023-08-06T18:46:49;3.00;;;1.07;;
19179;SDS011;9722;48.754;8.868;2023-08-06T18:50:09;2.07;;;1.10;;
19179;SDS011;9722;48.754;8.868;2023-08-06T18:53:31;1.73;;;1.00;;
19179;SDS011;9722;48.754;8.868;2023-08-06T18:56:51;1.50;;;0.97;;
19179;SDS011;9722;48.754;8.868;2023-08-06T19:00:12;1.83;;;1.13;;
19179;SDS011;9722;48.754;8.868;2023-08-06T19:03:32;1.30;;;0.90;;
19179;SDS011;9722;48.754;8.868;2023-08-06T19:06:53;2.40;;;0.90;;
19179;SDS011;9722;48.754;8.868;2023-08-06T19:10:14;1.47;;;0.70;;
19179;SDS011;9722;48.754;8.868;2023-08-06T19:13:34;2.30;;;1.07;;
19179;SDS011;9722;48.754;8.868;2023-08-06T19:16:55;1.73;;;1.13;;
19179;SDS011;9722;48.754;8.868;2023-08-06T19:20:18;1.97;;;1.00;;
19179;SDS011;9722;48.754;8.868;2023-08-06T19:23:39;1.13;;;1.03;;
19179;SDS011;9722;48.754;8.868;2023-08-06T19:26:59;1.27;;;0.90;;
19179;SDS011;9722;48.754;8.868;2023-08-06T19:30:20;1.40;;;0.73;;
19179;SDS011;9722;48.754;8.868;2023-08-06T19:33:41;1.97;;;0.80;;
19179;SDS011;9722;48.754;8.868;2023-08-06T19:37:01;0.60;;;0.60;;
19179;SDS011;9722;48.754;8.868;2023-08-06T19:40:22;0.83;;;0.83;;
19179;SDS011;9722;48.754;8.868;2023-08-06T19:43:43;0.93;;;0.90;;
19179;SDS011;9722;48.754;8.868;2023-08-06T19:47:04;0.83;;;0.80;;
19179;SDS011;9722;48.754;8.868;2023-08-06T19:50:24;0.63;;;0.63;;
19179;SDS011;9722;48.754;8.868;2023-08-06T19:53:45;0.80;;;0.80;;
19179;SDS011;9722;48.754;8.868;2023-08-06T19:57:07;0.80;;;0.77;;
19179;SDS011;9722;48.754;8.868;2023-08-06T20:00:28;0.60;;;0.60;;
19179;SDS011;9722;48.754;8.868;2023-08-06T20:03:48;1.43;;;0.80;;
19179;SDS011;9722;48.754;8.868;2023-08-06T20:07:09;2.33;;;0.90;;
19179;SDS011;9722;48.754;8.868;2023-08-06T20:10:29;1.30;;;1.00;;
19179;SDS011;9722;48.754;8.868;2023-08-06T20:13:50;0.80;;;0.73;;
19179;SDS011;9722;48.754;8.868;2023-08-06T20:17:10;0.80;;;0.60;;
19179;SDS011;9722;48.754;8.868;2023-08-06T20:20:34;1.67;;;0.90;;
19179;SDS011;9722;48.754;8.868;2023-08-06T20:23:57;2.90;;;1.00;;
19179;SDS011;9722;48.754;8.868;2023-08-06T20:27:18;1.00;;;0.80;;
19179;SDS011;9722;48.754;8.868;2023-08-06T20:30:40;0.83;;;0.80;;
19179;SDS011;9722;48.754;8.868;2023-08-06T20:34:01;2.60;;;0.70;;
19179;SDS011;9722;48.754;8.868;2023-08-06T20:37:22;0.93;;;0.80;;
19179;SDS011;9722;48.754;8.868;2023-08-06T20:40:42;0.50;;;0.50;;